Airport ICAO


00:49 UTC

3°C

Broken clouds


An affordable passengers' Moving Map for your aircraft. Made for the iPad and the iPhone
More information here

EGMD Lydd


Lydd UNITED KINGDOM   VFR


METAR EGMD 230020Z AUTO 08019KT 9999 BKN026/// 03/M02 Q1022 0h29min

TAF EGMD 222255Z 2300/2309 09015KT 9999 SCT030 PROB30 TEMPO 2300/2309 8000 1h54min





NOTAMS

OPEN